Time;durP1;ratioP1;P1;durP2;ratioP2;P2;SDS_P1;SDS_P2;PMS_P1;PMS_P2;Temp;Humidity;BMP_temperature;BMP_pressure;BME280_temperature;BME280_humidity;BME280_pressure;Samples;Min_cycle;Max_cycle;Signal;HPM_P1;HPM_P2
2021/08/30 00:02:00;;;;;;;38.10;22.17;;;;;;;15.81;91.73;101575.41;6214631;23;20020;-70
2021/08/30 00:04:27;;;;;;;37.47;21.88;;;;;;;15.80;92.00;101574.59;6212129;23;20025;-70
2021/08/30 00:06:54;;;;;;;36.97;21.02;;;;;;;15.80;91.79;101576.44;6214501;23;20021;-70
2021/08/30 00:09:21;;;;;;;38.80;21.58;;;;;;;15.81;91.97;101580.78;6214502;23;20017;-70
2021/08/30 00:11:48;;;;;;;32.75;20.45;;;;;;;15.78;91.61;101573.94;6214929;23;20020;-70
2021/08/30 00:14:15;;;;;;;36.75;20.85;;;;;;;15.73;91.74;101577.09;6214709;23;20023;-70
2021/08/30 00:16:41;;;;;;;36.25;20.10;;;;;;;15.72;91.83;101577.25;6214826;23;20029;-71
2021/08/30 00:19:08;;;;;;;39.75;20.88;;;;;;;15.67;92.24;101576.91;6214575;23;20013;-70
2021/08/30 00:21:35;;;;;;;36.25;20.50;;;;;;;15.71;92.00;101580.91;6187603;23;20026;-70
2021/08/30 00:24:02;;;;;;;42.03;20.88;;;;;;;15.71;91.90;101578.25;6214788;23;20024;-70
2021/08/30 00:26:29;;;;;;;37.10;20.27;;;;;;;15.64;92.27;101577.25;6214556;23;20024;-70
2021/08/30 00:28:56;;;;;;;44.22;22.05;;;;;;;15.71;92.05;101578.25;6214152;23;20016;-70
2021/08/30 00:31:26;;;;;;;40.17;22.02;;;;;;;15.66;91.86;101567.22;6161459;23;20443;-70
2021/08/30 00:33:54;;;;;;;38.00;21.42;;;;;;;15.66;92.33;101573.41;6163102;23;20017;-70
2021/08/30 00:36:23;;;;;;;38.20;21.65;;;;;;;15.69;91.84;101578.41;6214078;23;20029;-70
2021/08/30 00:38:49;;;;;;;39.80;22.98;;;;;;;15.65;91.95;101573.56;6214222;23;20017;-71
2021/08/30 00:41:16;;;;;;;44.13;22.48;;;;;;;15.69;92.12;101577.59;6214570;23;20021;-70
2021/08/30 00:43:43;;;;;;;41.33;22.67;;;;;;;15.67;91.84;101575.06;6188081;23;20016;-70
2021/08/30 00:46:10;;;;;;;38.90;22.02;;;;;;;15.74;91.78;101572.59;6188323;23;20021;-70
2021/08/30 00:48:36;;;;;;;42.17;22.02;;;;;;;15.69;91.72;101581.09;6214285;23;20455;-71
2021/08/30 00:51:03;;;;;;;36.75;21.95;;;;;;;15.68;91.90;101579.44;6187415;23;20317;-70
2021/08/30 00:53:30;;;;;;;40.75;22.50;;;;;;;15.73;91.49;101582.44;6187672;23;20052;-70
2021/08/30 00:55:57;;;;;;;38.45;22.15;;;;;;;15.72;91.86;101580.75;6214461;23;20016;-71
2021/08/30 00:58:25;;;;;;;41.13;22.90;;;;;;;15.74;91.44;101589.47;6214114;23;20021;-71
2021/08/30 01:00:52;;;;;;;43.30;22.70;;;;;;;15.76;91.59;101586.63;6214436;23;20368;-71
2021/08/30 01:03:19;;;;;;;42.35;22.85;;;;;;;15.73;91.56;101579.78;6214215;23;20082;-70
2021/08/30 01:05:51;;;;;;;45.78;22.95;;;;;;;15.75;91.07;101576.94;6214143;23;20488;-70
2021/08/30 01:08:27;;;;;;;46.40;22.27;;;;;;;15.70;91.13;101579.25;6188691;23;20384;-71
2021/08/30 01:10:57;;;;;;;40.90;23.08;;;;;;;15.71;91.49;101579.06;6214493;23;20396;-71
2021/08/30 01:13:31;;;;;;;38.57;23.37;;;;;;;15.68;91.07;101573.22;6161480;23;20020;-70
2021/08/30 01:16:01;;;;;;;42.03;23.15;;;;;;;15.75;90.91;101579.59;6216369;23;20710;-70
2021/08/30 01:18:30;;;;;;;41.65;23.15;;;;;;;15.71;90.88;101573.72;6184335;23;20425;-70
2021/08/30 01:21:11;;;;;;;38.67;22.80;;;;;;;15.68;91.03;101573.22;6186074;23;20084;-70
2021/08/30 01:23:40;;;;;;;44.53;23.10;;;;;;;15.71;91.02;101573.72;6186485;23;20017;-71
2021/08/30 01:26:09;;;;;;;39.60;22.77;;;;;;;15.66;91.13;101581.44;6187262;23;20017;-70
2021/08/30 01:28:40;;;;;;;45.33;22.92;;;;;;;15.65;91.29;101584.28;6188705;23;20024;-70
2021/08/30 01:31:17;;;;;;;44.42;23.65;;;;;;;15.65;90.78;101578.94;6184705;23;20037;-70
2021/08/30 01:33:49;;;;;;;39.90;23.90;;;;;;;15.70;90.77;101580.09;6186163;23;20021;-70
2021/08/30 01:36:17;;;;;;;;;;;;;;;15.64;90.91;101582.59;6184776;23;20044;-70
2021/08/30 01:38:46;;;;;;;45.60;22.90;;;;;;;15.60;90.98;101584.75;6185634;23;20393;-70
2021/08/30 01:41:17;;;;;;;42.65;23.08;;;;;;;15.62;90.91;101580.06;6184092;23;20027;-70
2021/08/30 01:43:46;;;;;;;46.55;23.40;;;;;;;15.61;90.36;101586.44;6184791;23;20455;-70
2021/08/30 01:46:14;;;;;;;46.40;23.80;;;;;;;15.65;90.63;101593.13;6185865;23;20027;-70
2021/08/30 01:48:48;;;;;;;43.53;23.48;;;;;;;15.61;90.47;101589.13;6184544;23;20020;-70
2021/08/30 01:51:22;;;;;;;46.40;24.33;;;;;;;15.61;90.06;101583.78;6183229;23;20064;-70
2021/08/30 01:53:51;;;;;;;48.17;24.75;;;;;;;15.57;90.57;101585.09;6184326;23;20027;-71
2021/08/30 01:56:20;;;;;;;45.80;23.88;;;;;;;15.58;90.34;101581.41;6184151;23;20092;-71
2021/08/30 02:01:35;;;;;;;46.03;24.70;;;;;;;15.60;89.77;101598.13;6183785;23;20325;-71
2021/08/30 02:04:03;;;;;;;53.03;26.45;;;;;;;15.61;90.02;101589.13;6185777;23;20075;-71
2021/08/30 02:06:32;;;;;;;50.13;26.38;;;;;;;15.61;89.90;101588.25;6185373;23;20104;-70
2021/08/30 02:09:00;;;;;;;51.92;26.67;;;;;;;15.57;90.17;101594.94;6185704;23;20024;-71
2021/08/30 02:11:35;;;;;;;49.30;27.60;;;;;;;15.52;90.15;101593.63;6184022;23;20448;-71
2021/08/30 02:14:07;;;;;;;46.35;27.30;;;;;;;15.63;89.23;101599.66;6185320;23;20017;-70
2021/08/30 02:16:35;;;;;;;50.40;28.27;;;;;;;15.57;90.19;101597.63;6189232;23;20391;-71
2021/08/30 02:19:34;;;;;;;50.40;28.83;;;;;;;15.57;89.53;101602.97;6188956;23;20025;-71
2021/08/30 02:22:05;;;;;;;56.50;28.52;;;;;;;15.55;89.57;101597.78;6186839;23;20028;-71
2021/08/30 02:24:54;;;;;;;47.03;28.77;;;;;;;15.54;89.62;101596.97;6215169;23;20028;-70
2021/08/30 02:27:27;;;;;;;42.95;26.75;;;;;;;15.60;89.33;101606.16;6215742;23;20017;-70
2021/08/30 02:30:05;;;;;;;50.97;27.55;;;;;;;15.62;89.22;101597.97;6215279;23;20116;-70
2021/08/30 02:32:33;;;;;;;45.20;27.42;;;;;;;15.55;89.20;101605.81;6189124;23;20067;-70
2021/08/30 02:35:02;;;;;;;53.65;27.85;;;;;;;15.48;89.70;101594.09;6213884;23;20467;-70
2021/08/30 02:37:32;;;;;;;44.70;28.08;;;;;;;15.55;89.27;101601.31;6189368;23;20028;-71
2021/08/30 02:40:02;;;;;;;46.60;27.05;;;;;;;15.47;89.73;101601.28;6215046;23;20017;-70
2021/08/30 02:42:33;;;;;;;47.17;26.67;;;;;;;15.50;89.31;101600.16;6215318;23;20048;-71
2021/08/30 02:45:06;;;;;;;44.03;25.85;;;;;;;15.58;88.84;101591.28;6215842;23;20103;-70
2021/08/30 02:47:35;;;;;;;42.72;25.60;;;;;;;15.48;89.26;101602.97;6215254;23;20128;-71
2021/08/30 02:50:04;;;;;;;41.08;24.90;;;;;;;15.52;88.93;101592.78;6186406;23;20024;-70
2021/08/30 02:52:33;;;;;;;43.42;25.00;;;;;;;15.47;89.11;101593.28;6163957;23;20031;-70
2021/08/30 02:55:00;;;;;;;44.33;25.15;;;;;;;15.52;89.26;101592.78;6188963;23;20502;-71
2021/08/30 02:57:28;;;;;;;46.75;26.25;;;;;;;15.54;89.34;101601.47;6215436;23;20090;-71
2021/08/30 02:59:56;;;;;;;37.72;25.35;;;;;;;15.48;89.53;101594.97;6214711;23;20040;-71
2021/08/30 03:02:24;;;;;;;45.75;25.20;;;;;;;15.49;89.41;101603.81;6215193;23;20394;-71
2021/08/30 03:04:54;;;;;;;44.45;25.20;;;;;;;15.52;89.54;101598.97;6215284;23;20016;-71
2021/08/30 03:07:23;;;;;;;43.22;26.52;;;;;;;15.51;89.84;101594.59;6215024;23;20020;-71
2021/08/30 03:09:50;;;;;;;43.35;24.98;;;;;;;15.44;89.77;101598.13;6214814;23;20023;-70
2021/08/30 03:12:18;;;;;;;47.22;25.77;;;;;;;15.50;89.68;101598.31;6214670;23;20044;-71
2021/08/30 03:14:47;;;;;;;48.42;25.75;;;;;;;15.53;89.49;101594.44;6215226;23;20051;-71
2021/08/30 03:17:15;;;;;;;48.70;26.50;;;;;;;15.43;89.58;101594.63;6211354;23;20078;-71
2021/08/30 03:19:45;;;;;;;42.05;25.15;;;;;;;15.42;89.70;101595.59;6213243;23;20103;-72
2021/08/30 03:22:15;;;;;;;49.67;26.13;;;;;;;15.49;89.13;101593.13;6188500;23;20455;-71
2021/08/30 03:24:43;;;;;;;46.17;26.15;;;;;;;15.42;89.21;101589.44;6214743;23;20030;-72
2021/08/30 03:27:11;;;;;;;44.28;24.92;;;;;;;15.46;89.54;101588.94;6188506;23;20016;-72
2021/08/30 03:29:39;;;;;;;41.58;26.48;;;;;;;15.50;89.00;101584.09;6188023;23;20024;-72
2021/08/30 03:32:09;;;;;;;44.60;25.73;;;;;;;15.40;89.40;101586.09;6215195;23;20021;-72
2021/08/30 03:34:37;;;;;;;43.65;25.48;;;;;;;15.42;89.30;101595.59;6188237;23;20020;-72
2021/08/30 03:37:06;;;;;;;44.55;25.88;;;;;;;15.46;89.21;101588.94;6214373;23;20431;-72
2021/08/30 03:39:33;;;;;;;50.05;27.38;;;;;;;15.39;89.39;101589.75;6214257;23;20016;-72
2021/08/30 03:42:03;;;;;;;53.78;26.35;;;;;;;15.42;89.60;101590.25;6161828;23;20395;-71
2021/08/30 03:44:32;;;;;;;44.20;25.73;;;;;;;15.40;89.14;101586.91;6216723;23;20510;-72
2021/08/30 03:46:59;;;;;;;48.42;26.65;;;;;;;15.41;89.21;101591.28;6215185;23;20027;-72
2021/08/30 03:49:28;;;;;;;47.38;25.92;;;;;;;15.37;89.92;101589.91;6214767;23;20148;-72
2021/08/30 03:51:58;;;;;;;47.13;25.80;;;;;;;15.29;89.79;101589.91;6214082;23;20017;-72
2021/08/30 03:54:26;;;;;;;44.70;25.90;;;;;;;15.31;89.82;101587.91;6163824;23;20511;-72
2021/08/30 03:56:54;;;;;;;47.63;25.63;;;;;;;15.33;89.47;101592.09;6188396;23;20383;-72
2021/08/30 03:59:22;;;;;;;44.15;25.38;;;;;;;15.42;89.25;101587.59;6188224;23;20025;-72
2021/08/30 04:01:52;;;;;;;49.75;25.95;;;;;;;15.40;89.45;101591.44;6188309;23;20048;-72
2021/08/30 04:04:22;;;;;;;48.40;25.42;;;;;;;15.34;89.30;101591.09;6214370;23;20047;-71
2021/08/30 04:06:50;;;;;;;43.28;25.80;;;;;;;15.38;89.45;101588.94;6214344;23;20058;-71
2021/08/30 04:09:20;;;;;;;44.38;25.35;;;;;;;15.35;89.32;101589.25;6212152;23;20023;-71
2021/08/30 04:11:48;;;;;;;42.78;24.17;;;;;;;15.39;89.18;101593.28;6215268;23;20017;-71
2021/08/30 04:14:15;;;;;;;43.13;25.23;;;;;;;15.39;88.90;101592.44;6214447;23;20027;-70
2021/08/30 04:16:45;;;;;;;43.35;25.20;;;;;;;15.34;89.29;101595.59;6214379;23;20028;-71
2021/08/30 04:19:12;;;;;;;45.05;25.27;;;;;;;15.36;89.46;101594.44;6214481;23;20032;-71
2021/08/30 04:21:39;;;;;;;41.42;25.35;;;;;;;15.40;89.43;101597.63;6214300;23;20344;-71
2021/08/30 04:24:06;;;;;;;42.58;25.95;;;;;;;15.44;89.18;101592.78;6214568;23;20020;-71
2021/08/30 04:26:33;;;;;;;47.80;25.35;;;;;;;15.37;88.89;101600.59;6188281;23;20024;-71
2021/08/30 04:28:59;;;;;;;50.03;25.60;;;;;;;15.37;89.34;101600.59;6188311;23;20051;-71
2021/08/30 04:31:26;;;;;;;49.53;25.95;;;;;;;15.33;89.58;101597.47;6214183;23;20459;-71
2021/08/30 04:33:53;;;;;;;45.45;26.48;;;;;;;15.41;89.14;101604.66;6184938;23;20074;-71
2021/08/30 04:36:19;;;;;;;46.85;25.60;;;;;;;15.45;89.46;101603.31;6162723;23;20028;-71
2021/08/30 04:38:46;;;;;;;47.33;27.10;;;;;;;15.45;89.34;101610.50;6187694;23;20112;-72
2021/08/30 04:41:13;;;;;;;46.30;25.58;;;;;;;15.48;88.89;101608.34;6214515;23;20431;-71
2021/08/30 04:43:40;;;;;;;49.58;26.55;;;;;;;15.52;88.59;101622.22;6214600;23;20024;-71
2021/08/30 04:46:07;;;;;;;42.40;26.15;;;;;;;15.52;88.75;101620.38;6214293;23;20020;-71
2021/08/30 04:48:34;;;;;;;43.67;26.17;;;;;;;15.48;89.15;101616.34;6214589;23;20470;-71
2021/08/30 04:51:01;;;;;;;42.08;28.38;;;;;;;15.52;89.07;101620.38;6189146;23;20020;-71
2021/08/30 04:53:28;;;;;;;46.35;27.25;;;;;;;15.46;88.92;101617.50;6216290;23;20115;-71
2021/08/30 04:55:56;;;;;;;47.08;26.25;;;;;;;15.46;88.57;101622.84;6216665;23;20024;-71
2021/08/30 04:58:23;;;;;;;48.13;27.63;;;;;;;15.45;88.87;101624.69;6216232;23;20021;-71
2021/08/30 05:00:50;;;;;;;45.05;27.42;;;;;;;15.50;88.65;101622.38;6215913;23;20439;-71
2021/08/30 05:03:17;;;;;;;43.20;26.88;;;;;;;15.52;88.79;101620.38;6215174;23;20020;-71
2021/08/30 05:05:44;;;;;;;41.85;27.77;;;;;;;15.55;89.01;101627.19;6215522;23;20462;-71
2021/08/30 05:08:11;;;;;;;47.28;27.08;;;;;;;15.59;88.60;101625.91;6214336;23;20443;-71
2021/08/30 05:10:38;;;;;;;51.03;28.77;;;;;;;15.63;89.27;101629.06;6215989;23;20321;-71
2021/08/30 05:13:04;;;;;;;49.33;27.40;;;;;;;15.57;88.96;101614.50;6216047;23;20381;-71
2021/08/30 05:15:31;;;;;;;50.63;28.30;;;;;;;15.61;88.42;101618.53;6189262;23;20024;-71
2021/08/30 05:17:58;;;;;;;46.92;27.70;;;;;;;15.56;88.63;101623.53;6184635;23;20396;-71
2021/08/30 05:20:25;;;;;;;51.47;30.42;;;;;;;15.52;89.17;101628.38;6185432;23;20021;-71
2021/08/30 05:22:52;;;;;;;50.45;28.67;;;;;;;15.59;88.91;101630.38;6186336;23;20396;-71
2021/08/30 05:25:19;;;;;;;48.70;28.73;;;;;;;15.53;88.80;101626.53;6185904;23;20351;-71
2021/08/30 05:27:48;;;;;;;47.13;28.77;;;;;;;15.55;88.54;101624.53;6184111;23;20021;-71
2021/08/30 05:30:15;;;;;;;53.88;26.58;;;;;;;15.63;88.46;101627.22;6183857;23;20028;-71
2021/08/30 05:32:42;;;;;;;52.60;28.25;;;;;;;15.58;88.82;101636.75;6184469;23;20109;-71
2021/08/30 05:35:09;;;;;;;44.75;27.13;;;;;;;15.63;88.45;101642.44;6183364;23;20027;-71
2021/08/30 05:37:36;;;;;;;49.08;25.83;;;;;;;15.67;87.86;101639.25;6185524;23;20056;-71
2021/08/30 05:40:04;;;;;;;43.97;25.83;;;;;;;15.66;87.48;101640.28;6183995;23;20025;-70
2021/08/30 05:42:31;;;;;;;43.00;25.40;;;;;;;15.63;86.98;101635.25;6185653;23;20021;-71
2021/08/30 05:44:58;;;;;;;44.42;24.70;;;;;;;15.59;87.63;101641.09;6185606;23;20097;-71
2021/08/30 05:47:24;;;;;;;40.40;25.85;;;;;;;15.62;87.73;101638.91;6185662;23;20021;-71
2021/08/30 05:49:51;;;;;;;47.53;25.98;;;;;;;15.64;87.29;101641.44;6184943;23;20028;-71
2021/08/30 05:52:18;;;;;;;50.72;25.98;;;;;;;15.59;87.45;101641.09;6185191;23;20063;-71
2021/08/30 05:54:45;;;;;;;43.47;24.80;;;;;;;15.60;87.40;101646.28;6185465;23;20017;-71
2021/08/30 05:57:11;;;;;;;45.53;25.40;;;;;;;15.64;87.73;101644.94;6183932;23;20017;-71
2021/08/30 05:59:38;;;;;;;41.75;25.80;;;;;;;15.63;87.35;101645.94;6184243;23;20031;-71
2021/08/30 06:02:05;;;;;;;54.03;26.90;;;;;;;15.65;87.54;101646.63;6188282;23;20441;-71
2021/08/30 06:04:32;;;;;;;49.10;26.30;;;;;;;15.66;87.32;101642.97;6184696;23;20096;-71
2021/08/30 06:06:59;;;;;;;64.93;27.45;;;;;;;15.69;87.43;101642.59;6183804;23;20017;-72
2021/08/30 06:09:26;;;;;;;41.58;25.27;;;;;;;15.71;86.88;101650.47;6185156;23;20455;-71
2021/08/30 06:11:52;;;;;;;48.05;27.13;;;;;;;15.73;86.96;101651.13;6184075;23;20017;-71
2021/08/30 06:14:19;;;;;;;55.58;26.50;;;;;;;15.69;86.98;101658.66;6183993;23;20017;-72
2021/08/30 06:16:46;;;;;;;53.30;27.10;;;;;;;15.72;87.31;101646.81;6191288;23;20021;-71
2021/08/30 06:19:12;;;;;;;73.90;28.52;;;;;;;15.74;87.31;101653.69;6215627;23;20016;-71
2021/08/30 06:21:39;;;;;;;53.78;27.65;;;;;;;15.81;87.30;101643.16;6188894;23;20013;-72
2021/08/30 06:24:07;;;;;;;49.08;28.05;;;;;;;15.78;87.65;101651.50;6188583;23;20103;-71
2021/08/30 06:26:36;;;;;;;53.30;27.58;;;;;;;15.80;87.36;101649.50;6215303;23;20203;-71
2021/08/30 06:29:04;;;;;;;51.40;28.80;;;;;;;15.82;87.71;101647.50;6213760;23;20027;-71
2021/08/30 06:31:31;;;;;;;55.53;28.60;;;;;;;15.83;87.57;101654.53;6162093;23;20039;-71
2021/08/30 06:33:59;;;;;;;51.20;28.52;;;;;;;15.88;87.29;101651.34;6215387;23;20042;-72
2021/08/30 06:36:25;;;;;;;51.17;30.88;;;;;;;15.84;87.37;101653.50;6162843;23;20064;-72
2021/08/30 06:38:52;;;;;;;58.90;34.17;;;;;;;15.86;87.08;101653.34;6214876;23;20016;-71
2021/08/30 06:41:19;;;;;;;56.15;33.45;;;;;;;15.95;87.94;101652.34;6188665;23;20088;-71
2021/08/30 06:43:46;;;;;;;54.53;31.80;;;;;;;15.92;88.17;101661.56;6215187;23;20100;-71
2021/08/30 06:46:13;;;;;;;58.45;31.67;;;;;;;15.99;87.91;101651.03;6214923;23;20020;-72
2021/08/30 06:48:39;;;;;;;59.50;32.95;;;;;;;16.02;88.15;101658.69;6189000;23;20506;-72
2021/08/30 06:51:06;;;;;;;62.20;32.35;;;;;;;16.01;86.95;101653.50;6212733;23;20020;-72
2021/08/30 06:53:33;;;;;;;55.42;32.05;;;;;;;15.96;86.84;101655.88;6215018;23;20020;-72
2021/08/30 06:56:00;;;;;;;52.40;30.90;;;;;;;15.84;86.76;101658.84;6188964;23;20020;-71
2021/08/30 06:58:26;;;;;;;58.03;31.52;;;;;;;15.81;87.59;101653.00;6215075;23;20020;-72
2021/08/30 07:00:53;;;;;;;49.25;30.48;;;;;;;15.84;86.81;101663.38;6188800;23;20017;-72
2021/08/30 07:03:20;;;;;;;49.05;28.75;;;;;;;15.92;86.73;101658.88;6214191;23;20048;-72
2021/08/30 07:05:47;;;;;;;51.85;29.45;;;;;;;15.94;86.45;101658.72;6187042;23;20039;-72
2021/08/30 07:08:14;;;;;;;52.08;29.17;;;;;;;15.95;87.15;101651.50;6183938;23;20075;-72
2021/08/30 07:10:41;;;;;;;57.60;28.15;;;;;;;16.01;87.03;101656.19;6187478;23;20031;-73
2021/08/30 07:13:08;;;;;;;59.17;29.92;;;;;;;16.23;87.81;101652.00;6212824;23;20458;-73
2021/08/30 07:15:35;;;;;;;50.97;28.40;;;;;;;16.14;86.75;101647.69;6164111;23;20020;-73
2021/08/30 07:18:02;;;;;;;41.72;26.42;;;;;;;16.07;86.36;101650.19;6186651;23;20146;-74
2021/08/30 07:20:29;;;;;;;54.25;26.77;;;;;;;16.10;86.14;101648.00;6185930;23;20024;-74
2021/08/30 07:22:56;;;;;;;52.75;27.52;;;;;;;16.13;86.01;101646.81;6187512;23;20063;-74
2021/08/30 07:25:24;;;;;;;45.30;26.52;;;;;;;16.17;86.61;101641.97;6162854;23;20024;-74
2021/08/30 07:27:50;;;;;;;46.58;28.30;;;;;;;16.30;86.58;101639.63;6187823;23;20024;-74
2021/08/30 07:30:17;;;;;;;48.05;28.63;;;;;;;16.25;86.20;101650.00;6185360;23;20017;-74
2021/08/30 07:32:44;;;;;;;53.10;28.48;;;;;;;16.22;86.77;101637.78;6186599;23;20020;-74
2021/08/30 07:35:13;;;;;;;55.03;33.33;;;;;;;16.23;87.08;101643.97;6163532;23;20028;-74
2021/08/30 07:37:40;;;;;;;62.38;35.97;;;;;;;16.31;86.77;101646.63;6211301;23;20024;-74
2021/08/30 07:40:07;;;;;;;67.35;36.95;;;;;;;16.37;86.86;101651.31;6186784;23;20020;-74
2021/08/30 07:42:34;;;;;;;65.82;37.10;;;;;;;16.45;86.18;101650.47;6213225;23;20016;-74
2021/08/30 07:45:02;;;;;;;63.85;37.38;;;;;;;16.43;86.40;101647.94;6213879;23;20017;-73
2021/08/30 07:47:28;;;;;;;70.18;38.05;;;;;;;16.48;86.87;101653.63;6186593;23;20026;-74
2021/08/30 07:49:55;;;;;;;60.97;35.60;;;;;;;16.50;86.81;101656.16;6187301;23;20103;-73
2021/08/30 07:52:22;;;;;;;61.95;35.10;;;;;;;16.44;86.50;101662.16;6214357;23;20016;-75
2021/08/30 07:54:49;;;;;;;60.65;35.25;;;;;;;16.40;86.94;101658.16;6214983;23;20044;-77
2021/08/30 07:57:16;;;;;;;55.67;35.28;;;;;;;16.55;86.70;101669.84;6164162;23;20016;-74
2021/08/30 07:59:43;;;;;;;61.40;35.10;;;;;;;16.41;86.41;101665.19;6213828;23;20030;-72
2021/08/30 08:02:10;;;;;;;57.25;34.47;;;;;;;16.40;86.86;101658.16;6187486;23;20040;-75
2021/08/30 08:04:37;;;;;;;57.55;33.97;;;;;;;16.39;86.73;101660.03;6185552;23;20021;-74
2021/08/30 08:07:03;;;;;;;54.17;32.40;;;;;;;16.41;86.85;101660.69;6214333;23;20404;-75
2021/08/30 08:09:30;;;;;;;58.08;31.45;;;;;;;16.46;86.38;101662.84;6214261;23;20091;-76
2021/08/30 08:11:57;;;;;;;54.75;32.38;;;;;;;16.45;85.92;101670.03;6187590;23;20013;-74
2021/08/30 08:14:24;;;;;;;55.30;31.45;;;;;;;16.49;86.41;101670.53;6212720;23;20432;-73
2021/08/30 08:16:51;;;;;;;51.70;29.55;;;;;;;16.60;86.05;101672.84;6213799;23;20033;-74
2021/08/30 08:19:18;;;;;;;51.53;28.40;;;;;;;16.47;85.55;101678.72;6189070;23;20027;-74
2021/08/30 08:21:47;;;;;;;57.15;29.58;;;;;;;16.58;85.62;101674.88;6189355;23;20052;-74
2021/08/30 08:24:14;;;;;;;50.22;28.73;;;;;;;16.65;85.85;101672.34;6165744;23;20017;-74
2021/08/30 08:26:41;;;;;;;50.85;30.08;;;;;;;16.66;85.38;101674.00;6216147;23;20020;-76
2021/08/30 08:29:08;;;;;;;49.42;30.10;;;;;;;16.69;85.23;101679.03;6189298;23;20064;-76
2021/08/30 08:31:34;;;;;;;49.97;29.35;;;;;;;16.67;85.23;101676.50;6190175;23;20013;-73
2021/08/30 08:34:01;;;;;;;43.40;27.15;;;;;;;16.68;84.82;101677.34;6187366;23;20044;-75
2021/08/30 08:36:28;;;;;;;47.92;27.90;;;;;;;16.63;84.28;101677.03;6215845;23;20017;-74
2021/08/30 08:38:55;;;;;;;47.15;27.50;;;;;;;16.64;84.52;101682.22;6188924;23;20328;-74
2021/08/30 08:41:22;;;;;;;52.03;27.98;;;;;;;16.65;84.49;101683.06;6215963;23;20040;-73
2021/08/30 08:43:53;;;;;;;46.47;26.00;;;;;;;16.66;84.90;101687.41;6188097;23;20033;-75
2021/08/30 08:46:21;;;;;;;53.75;27.80;;;;;;;16.65;83.82;101683.88;6216195;23;20020;-74
2021/08/30 08:48:49;;;;;;;48.83;27.88;;;;;;;16.71;84.15;101682.38;6188853;23;20024;-73
2021/08/30 08:51:16;;;;;;;46.60;27.40;;;;;;;16.73;83.98;101680.34;6215799;23;20020;-74
2021/08/30 08:53:43;;;;;;;49.97;29.60;;;;;;;16.72;83.95;101691.22;6215579;23;20027;-74
2021/08/30 08:56:15;;;;;;;41.35;26.25;;;;;;;16.77;84.13;101676.34;6164885;23;20016;-74
2021/08/30 08:58:42;;;;;;;45.47;26.48;;;;;;;16.81;83.89;101679.50;6189303;23;20016;-74
2021/08/30 09:01:11;;;;;;;41.97;25.38;;;;;;;16.80;84.13;101680.50;6189388;23;20021;-74
2021/08/30 09:03:48;;;;;;;42.92;24.70;;;;;;;16.85;83.55;101687.03;6187223;23;20063;-74
2021/08/30 09:06:45;;;;;;;45.03;25.17;;;;;;;16.87;83.36;101677.00;6164734;23;20071;-74
2021/08/30 09:09:15;;;;;;;40.05;23.20;;;;;;;16.88;83.21;101683.19;6188668;23;20016;-74
2021/08/30 09:11:51;;;;;;;39.58;22.65;;;;;;;16.89;82.80;101679.50;6214716;23;20514;-74
2021/08/30 09:14:20;;;;;;;41.72;23.45;;;;;;;16.88;82.89;101681.34;6214451;23;20020;-74
2021/08/30 09:16:48;;;;;;;43.15;23.45;;;;;;;16.94;82.86;101682.50;6214278;23;20040;-74
2021/08/30 09:19:17;;;;;;;37.42;22.60;;;;;;;16.94;82.97;101682.50;6189139;23;20123;-74
2021/08/30 09:21:47;;;;;;;39.70;22.73;;;;;;;16.96;82.55;101685.84;6215224;23;20024;-74
2021/08/30 09:24:20;;;;;;;36.63;23.30;;;;;;;16.92;82.31;101687.22;6215351;23;20322;-74
2021/08/30 09:26:51;;;;;;;40.75;23.52;;;;;;;16.92;83.20;101687.22;6188566;23;20039;-74
2021/08/30 09:29:23;;;;;;;36.25;22.95;;;;;;;16.93;83.08;101691.53;6214968;23;20104;-74
2021/08/30 09:32:08;;;;;;;45.35;23.55;;;;;;;16.92;82.78;101687.22;6186330;23;20020;-73
2021/08/30 09:34:39;;;;;;;40.22;23.20;;;;;;;16.97;82.77;101689.34;6214299;23;20021;-73
2021/08/30 09:37:13;;;;;;;38.10;22.85;;;;;;;16.96;82.37;101695.72;6214480;23;20055;-73
2021/08/30 09:40:02;;;;;;;42.40;22.52;;;;;;;16.99;82.64;101690.88;6215209;23;20020;-73
2021/08/30 09:42:29;;;;;;;36.13;22.45;;;;;;;17.04;81.42;101696.50;6188485;23;20012;-73
2021/08/30 09:45:08;;;;;;;36.78;21.88;;;;;;;17.14;81.21;101695.50;6188887;23;20036;-73
2021/08/30 09:47:35;;;;;;;38.92;21.88;;;;;;;17.18;80.96;101689.59;6188415;23;20032;-73
2021/08/30 09:50:08;;;;;;;41.22;22.75;;;;;;;17.22;81.96;101690.09;6164523;23;20021;-73
2021/08/30 09:52:35;;;;;;;40.20;23.02;;;;;;;17.19;81.16;101693.97;6188378;23;20028;-73
2021/08/30 09:55:02;;;;;;;40.53;22.08;;;;;;;17.29;81.36;101688.38;6160095;23;20026;-72
2021/08/30 09:57:29;;;;;;;39.30;22.25;;;;;;;17.34;80.31;101680.66;6187518;23;20088;-73
2021/08/30 09:59:58;;;;;;;37.65;21.80;;;;;;;17.40;80.30;101684.47;6162506;23;20040;-73
2021/08/30 10:02:29;;;;;;;38.35;22.00;;;;;;;17.54;80.37;101680.22;6162412;23;20028;-73
2021/08/30 10:04:59;;;;;;;37.28;22.75;;;;;;;17.58;79.02;101678.84;6160750;23;20479;-73
2021/08/30 10:07:28;;;;;;;37.15;21.15;;;;;;;17.56;79.80;101687.06;6169737;23;20024;-73
2021/08/30 10:09:56;;;;;;;35.83;21.60;;;;;;;17.55;79.11;101668.44;6214286;23;20108;-73
2021/08/30 10:12:22;;;;;;;33.13;21.70;;;;;;;17.54;79.64;101681.03;6187524;23;20021;-73
2021/08/30 10:14:50;;;;;;;35.75;22.35;;;;;;;17.54;79.79;101672.16;6188327;23;20029;-73
2021/08/30 10:17:18;;;;;;;37.78;21.75;;;;;;;17.40;79.80;101674.56;6188095;23;20061;-73
2021/08/30 10:19:57;;;;;;;39.05;21.38;;;;;;;17.42;80.34;101664.50;6214699;23;20052;-73
2021/08/30 10:22:24;;;;;;;35.13;21.58;;;;;;;17.37;80.35;101669.56;6214524;23;20101;-74
2021/08/30 10:24:52;;;;;;;37.67;21.20;;;;;;;17.35;80.29;101670.75;6214030;23;20021;-74
2021/08/30 10:27:34;;;;;;;35.42;21.48;;;;;;;17.35;80.15;101665.38;6212460;23;20024;-74
2021/08/30 10:30:06;;;;;;;34.60;21.05;;;;;;;17.27;80.37;101671.63;6185675;23;20023;-74
2021/08/30 10:32:42;;;;;;;36.70;22.10;;;;;;;17.31;81.15;101662.22;6187421;23;20028;-73
2021/08/30 10:35:20;;;;;;;34.30;21.40;;;;;;;17.27;80.92;101663.59;6215522;23;20016;-73
2021/08/30 10:37:51;;;;;;;40.40;24.05;;;;;;;17.33;82.50;101662.03;6214667;23;20099;-74
2021/08/30 10:40:20;;;;;;;36.53;22.08;;;;;;;17.28;82.45;101662.56;6187118;23;20559;-74
2021/08/30 10:43:10;;;;;;;37.55;23.05;;;;;;;17.36;83.04;101672.44;6192251;23;20016;-74
2021/08/30 10:45:43;;;;;;;34.80;21.73;;;;;;;17.33;82.33;101673.59;6189995;23;20020;-74
2021/08/30 10:48:14;;;;;;;37.70;21.13;;;;;;;17.42;80.97;101679.75;6163461;23;20032;-74
2021/08/30 10:50:45;;;;;;;34.95;21.50;;;;;;;17.42;83.43;101675.22;6213455;23;20021;-74
2021/08/30 10:53:18;;;;;;;41.97;22.67;;;;;;;17.39;81.52;101672.06;6187960;23;20402;-73
2021/08/30 10:55:48;;;;;;;37.17;22.00;;;;;;;17.41;80.94;101676.25;6162459;23;20127;-71
2021/08/30 10:58:18;;;;;;;35.95;22.70;;;;;;;17.57;82.64;101679.84;6189067;23;20099;-74
2021/08/30 11:00:49;;;;;;;36.40;21.50;;;;;;;17.55;80.87;101671.13;6173118;23;20491;-74
2021/08/30 11:03:35;;;;;;;41.47;21.75;;;;;;;17.51;81.08;101675.19;6195752;23;20024;-74
2021/08/30 11:06:06;;;;;;;37.47;21.92;;;;;;;17.57;81.85;101679.84;6187408;23;20017;-74
2021/08/30 11:08:35;;;;;;;34.67;22.25;;;;;;;17.54;81.37;101685.56;6214264;23;20740;-75
2021/08/30 11:11:20;;;;;;;35.97;21.73;;;;;;;17.63;80.44;101679.97;6213493;23;20027;-74
2021/08/30 11:16:41;;;;;;;33.20;21.63;;;;;;;17.57;79.16;101678.00;5120623;27;20403;-73
2021/08/30 11:19:13;;;;;;;34.25;22.00;;;;;;;17.61;79.63;101678.50;5082004;28;20067;-73
2021/08/30 11:21:48;;;;;;;36.83;22.95;;;;;;;17.63;79.89;101684.50;5088481;28;20485;-73
2021/08/30 11:24:35;;;;;;;35.10;22.65;;;;;;;17.75;78.32;101680.38;5093262;28;20565;-74